createdAt,value
2018-01-24T00:02:01.484Z,0.39
2018-01-24T00:07:06.885Z,0.58
2018-01-24T00:09:36.767Z,0.52
2018-01-24T00:12:05.797Z,0.58
2018-01-24T00:14:36.370Z,0.51
2018-01-24T00:17:07.336Z,0.58
2018-01-24T00:19:39.771Z,0.67
2018-01-24T00:22:13.886Z,0.66
2018-01-24T00:24:45.859Z,0.74
2018-01-24T00:29:51.453Z,0.87
2018-01-24T00:32:20.966Z,1.01
2018-01-24T00:34:52.622Z,0.99
2018-01-24T00:37:21.783Z,1.11
2018-01-24T00:39:51.019Z,1.14
2018-01-24T00:42:20.104Z,1.25
2018-01-24T00:44:49.365Z,1.28
2018-01-24T00:49:57.085Z,1.53
2018-01-24T00:52:29.410Z,1.60
2018-01-24T00:57:36.646Z,1.72
2018-01-24T01:00:05.695Z,1.90
2018-01-24T01:02:34.718Z,1.76
2018-01-24T01:05:03.770Z,1.76
2018-01-24T01:07:32.916Z,1.74
2018-01-24T01:10:01.941Z,1.88
2018-01-24T01:12:34.543Z,1.96
2018-01-24T01:15:03.630Z,1.93
2018-01-24T01:17:35.823Z,1.99
2018-01-24T01:20:07.441Z,1.98
2018-01-24T01:22:39.157Z,2.01
2018-01-24T01:25:08.224Z,2.00
2018-01-24T01:27:37.813Z,2.01
2018-01-24T01:30:10.455Z,2.04
2018-01-24T01:35:15.517Z,2.21
2018-01-24T01:37:48.197Z,2.17
2018-01-24T01:42:52.544Z,2.40
2018-01-24T01:45:24.807Z,2.46
2018-01-24T01:50:30.982Z,2.68
2018-01-24T01:53:03.147Z,2.65
2018-01-24T01:55:34.995Z,2.72
2018-01-24T01:58:03.991Z,2.79
2018-01-24T02:00:33.016Z,2.87
2018-01-24T02:03:04.186Z,2.82
2018-01-24T02:05:33.190Z,2.79
2018-01-24T02:08:05.700Z,2.84
2018-01-24T02:13:09.884Z,2.87
2018-01-24T02:15:42.419Z,3.00
2018-01-24T02:18:15.921Z,3.00
2018-01-24T02:20:44.916Z,2.95
2018-01-24T02:23:14.249Z,3.01
2018-01-24T02:25:43.335Z,3.12
2018-01-24T02:28:16.860Z,3.13
2018-01-24T02:30:48.829Z,3.23
2018-01-24T02:33:19.158Z,3.36
2018-01-24T02:35:48.186Z,3.51
2018-01-24T02:41:30.515Z,3.57
2018-01-24T02:43:59.633Z,3.59
2018-01-24T02:46:32.582Z,3.68
2018-01-24T02:49:01.613Z,3.49
2018-01-24T02:51:34.121Z,3.33
2018-01-24T02:54:05.943Z,3.31
2018-01-24T02:56:39.124Z,3.38
2018-01-24T02:59:11.980Z,3.42
2018-01-24T03:01:43.861Z,3.43
2018-01-24T03:04:15.946Z,3.53
2018-01-24T03:09:20.576Z,3.71
2018-01-24T03:11:54.469Z,3.62
2018-01-24T03:14:23.481Z,3.60
2018-01-24T03:16:56.451Z,3.63
2018-01-24T03:19:25.474Z,3.66
2018-01-24T03:21:54.939Z,3.73
2018-01-24T03:26:59.360Z,3.79
2018-01-24T03:29:28.398Z,3.78
2018-01-24T03:32:00.756Z,3.68
2018-01-24T03:34:29.757Z,3.61
2018-01-24T03:37:02.255Z,3.71
2018-01-24T03:39:31.264Z,3.66
2018-01-24T03:42:04.069Z,3.81
2018-01-24T03:47:08.196Z,4.15
2018-01-24T03:49:42.495Z,4.11
2018-01-24T03:52:11.494Z,4.10
2018-01-24T03:54:44.587Z,4.16
2018-01-24T03:57:19.049Z,4.18
2018-01-24T03:59:53.183Z,4.18
2018-01-24T04:02:22.182Z,4.20
2018-01-24T04:04:56.489Z,4.22
2018-01-24T04:07:25.496Z,4.20
2018-01-24T04:09:58.429Z,4.18
2018-01-24T04:12:31.231Z,4.17
2018-01-24T04:17:39.748Z,4.38
2018-01-24T04:20:14.062Z,4.43
2018-01-24T04:22:43.060Z,4.30
2018-01-24T04:25:12.123Z,4.28
2018-01-24T04:27:45.173Z,4.19
2018-01-24T04:30:18.398Z,4.09
2018-01-24T04:32:48.310Z,4.14
2018-01-24T04:35:20.991Z,4.29
2018-01-24T04:37:50.042Z,4.19
2018-01-24T04:40:19.073Z,4.18
2018-01-24T04:45:23.570Z,4.36
2018-01-24T04:47:53.906Z,4.37
2018-01-24T04:50:25.662Z,4.34
2018-01-24T04:52:57.276Z,4.33
2018-01-24T04:55:30.555Z,4.32
2018-01-24T04:58:04.745Z,4.22
2018-01-24T05:00:38.248Z,4.18
2018-01-24T05:03:10.835Z,4.05
2018-01-24T05:05:43.980Z,3.98
2018-01-24T05:08:13.458Z,4.01
2018-01-24T05:10:42.833Z,3.88
2018-01-24T05:13:11.971Z,3.95
2018-01-24T05:23:29.114Z,4.22
2018-01-24T05:28:37.662Z,4.14
2018-01-24T05:31:06.904Z,4.10
2018-01-24T05:33:40.104Z,4.01
2018-01-24T05:36:09.374Z,4.03
2018-01-24T05:38:38.633Z,4.05
2018-01-24T05:41:11.685Z,4.07
2018-01-24T05:43:41.072Z,4.10
2018-01-24T05:46:10.144Z,4.00
2018-01-24T05:48:43.841Z,3.99
2018-01-24T05:51:16.599Z,4.12
2018-01-24T05:53:45.621Z,4.16
2018-01-24T05:56:14.669Z,4.08
2018-01-24T05:58:45.456Z,4.03
2018-01-24T06:01:18.066Z,3.98
2018-01-24T06:03:50.239Z,3.89
2018-01-24T06:06:21.389Z,3.79
2018-01-24T06:08:54.734Z,3.75
2018-01-24T06:11:28.242Z,3.71
2018-01-24T06:14:01.318Z,3.71
2018-01-24T06:16:30.341Z,3.71
2018-01-24T06:19:03.832Z,3.70
2018-01-24T06:21:38.152Z,3.67
2018-01-24T06:24:11.270Z,3.57
2018-01-24T06:26:40.982Z,3.50
2018-01-24T06:29:10.004Z,3.44
2018-01-24T06:31:39.040Z,3.44
2018-01-24T06:34:12.016Z,3.32
2018-01-24T06:36:45.782Z,3.24
2018-01-24T06:39:14.798Z,3.21
2018-01-24T06:41:47.958Z,3.11
2018-01-24T06:44:16.997Z,3.22
2018-01-24T06:46:49.441Z,3.18
2018-01-24T06:51:56.288Z,3.31
2018-01-24T06:57:00.953Z,3.33
2018-01-24T07:02:05.659Z,3.31
2018-01-24T07:04:35.149Z,3.28
2018-01-24T07:07:05.957Z,3.29
2018-01-24T07:09:35.005Z,3.46
2018-01-24T07:12:21.994Z,3.50
2018-01-24T07:14:54.703Z,3.41
2018-01-24T07:25:16.192Z,3.48
2018-01-24T07:27:45.232Z,3.45
2018-01-24T07:30:16.167Z,3.49
2018-01-24T07:32:48.308Z,3.55
2018-01-24T07:35:17.306Z,3.64
2018-01-24T07:37:49.535Z,3.77
2018-01-24T07:42:55.706Z,3.98
2018-01-24T07:45:28.417Z,4.17
2018-01-24T07:47:57.970Z,4.27
2018-01-24T07:50:32.942Z,4.39
2018-01-24T07:53:01.946Z,4.49
2018-01-24T07:55:30.969Z,4.66
2018-01-24T07:58:00.035Z,4.73
2018-01-24T08:00:33.006Z,4.82
2018-01-24T08:03:02.020Z,4.84
2018-01-24T08:05:33.897Z,4.93
2018-01-24T08:10:41.215Z,5.11
2018-01-24T08:13:13.878Z,5.21
2018-01-24T08:15:42.880Z,5.28
2018-01-24T08:18:15.213Z,5.44
2018-01-24T08:20:45.124Z,5.56
2018-01-24T08:23:17.565Z,5.75
2018-01-24T08:25:50.786Z,5.86
2018-01-24T08:28:24.126Z,6.02
2018-01-24T08:30:57.615Z,6.14
2018-01-24T08:33:30.251Z,6.31
2018-01-24T08:35:59.987Z,6.41
2018-01-24T08:41:06.744Z,6.75
2018-01-24T08:43:39.466Z,6.87
2018-01-24T08:48:47.071Z,7.30
2018-01-24T08:51:16.177Z,7.38
2018-01-24T08:53:49.246Z,7.54
2018-01-24T08:58:58.321Z,7.80
2018-01-24T09:01:29.725Z,7.95
2018-01-24T09:03:58.725Z,8.11
2018-01-24T09:06:27.746Z,8.43
2018-01-24T09:08:56.795Z,8.89
2018-01-24T09:11:30.676Z,10.21
2018-01-24T09:13:59.705Z,12.21
2018-01-24T09:16:32.826Z,14.49
2018-01-24T09:19:05.772Z,16.32
2018-01-24T09:21:38.935Z,18.15
2018-01-24T09:24:11.920Z,19.66
2018-01-24T09:26:43.053Z,21.27
2018-01-24T09:29:16.327Z,21.93
2018-01-24T09:31:49.479Z,22.85
2018-01-24T09:34:22.342Z,23.93
2018-01-24T09:36:55.026Z,23.04
2018-01-24T09:39:28.609Z,23.06
2018-01-24T09:41:57.714Z,23.93
2018-01-24T09:44:30.971Z,24.19
2018-01-24T09:47:01.823Z,25.27
2018-01-24T09:49:33.604Z,26.30
2018-01-24T09:52:06.641Z,24.48
2018-01-24T09:54:39.493Z,24.81
2018-01-24T09:57:08.555Z,25.25
2018-01-24T09:59:41.958Z,26.11
2018-01-24T10:02:10.982Z,25.55
2018-01-24T10:04:43.632Z,26.07
2018-01-24T10:07:14.110Z,24.91
2018-01-24T10:12:22.814Z,24.42
2018-01-24T10:17:27.305Z,24.64
2018-01-24T10:20:03.095Z,24.17
2018-01-24T10:22:36.184Z,22.85
2018-01-24T10:25:09.414Z,22.47
2018-01-24T10:27:38.429Z,21.88
2018-01-24T10:30:11.909Z,22.79
2018-01-24T10:32:40.921Z,21.60
2018-01-24T10:35:14.258Z,20.84
2018-01-24T10:40:22.710Z,22.55
2018-01-24T10:42:55.362Z,22.34
2018-01-24T10:45:24.379Z,22.20
2018-01-24T10:47:53.419Z,24.19
2018-01-24T10:50:22.462Z,24.20
2018-01-24T10:52:56.251Z,22.75
2018-01-24T10:55:25.268Z,23.47
2018-01-24T10:57:57.032Z,24.43
2018-01-24T11:00:30.454Z,25.31
2018-01-24T11:05:36.713Z,25.82
2018-01-24T11:08:09.723Z,25.96
2018-01-24T11:10:38.736Z,25.54
2018-01-24T11:13:11.584Z,25.52
2018-01-24T11:15:40.601Z,25.61
2018-01-24T11:18:14.868Z,27.24
2018-01-24T11:20:43.900Z,29.07
2018-01-24T11:23:16.586Z,29.94
2018-01-24T11:25:51.631Z,29.39
2018-01-24T11:30:56.130Z,28.57
2018-01-24T11:33:28.933Z,28.84
2018-01-24T11:35:57.949Z,28.78
2018-01-24T11:38:31.600Z,28.08
2018-01-24T11:41:04.759Z,27.51
2018-01-24T11:43:37.892Z,27.52
2018-01-24T11:46:06.933Z,27.28
2018-01-24T11:48:40.279Z,28.96
2018-01-24T11:51:13.986Z,29.66
2018-01-24T11:53:43.010Z,29.33
2018-01-24T11:56:15.463Z,31.13
2018-01-24T11:58:44.934Z,31.41
2018-01-24T12:01:17.082Z,30.09
2018-01-24T12:03:48.031Z,30.81
2018-01-24T12:06:21.855Z,30.52
2018-01-24T12:08:50.870Z,30.95
2018-01-24T12:11:24.210Z,30.28
2018-01-24T12:13:57.062Z,29.12
2018-01-24T12:16:28.902Z,26.98
2018-01-24T12:18:58.044Z,27.56
2018-01-24T12:24:08.580Z,26.32
2018-01-24T12:26:41.032Z,26.37
2018-01-24T12:29:10.050Z,26.29
2018-01-24T12:31:42.644Z,26.75
2018-01-24T12:34:11.659Z,25.77
2018-01-24T12:36:40.877Z,23.76
2018-01-24T12:41:49.919Z,23.41
2018-01-24T12:44:21.688Z,23.33
2018-01-24T12:46:50.792Z,23.16
2018-01-24T12:49:23.666Z,22.83
2018-01-24T12:51:56.872Z,23.50
2018-01-24T12:54:29.793Z,24.21
2018-01-24T12:57:02.527Z,24.06
2018-01-24T12:59:34.068Z,23.30
2018-01-24T13:02:03.089Z,22.91
2018-01-24T13:04:36.080Z,23.12
2018-01-24T13:07:05.988Z,23.20
2018-01-24T13:09:39.558Z,22.93
2018-01-24T13:12:08.610Z,22.63
2018-01-24T13:17:17.185Z,22.62
2018-01-24T13:19:51.464Z,22.81
2018-01-24T13:22:20.484Z,22.69
2018-01-24T13:24:49.512Z,23.44
2018-01-24T13:27:18.570Z,24.26
2018-01-24T13:29:47.617Z,25.09
2018-01-24T13:32:20.359Z,24.09
2018-01-24T13:37:26.698Z,27.61
2018-01-24T13:40:00.041Z,28.32
2018-01-24T13:42:33.772Z,28.53
2018-01-24T13:45:06.541Z,28.35
2018-01-24T13:47:38.630Z,28.07
2018-01-24T13:52:43.065Z,28.94
2018-01-24T13:55:13.555Z,29.25
2018-01-24T13:57:46.394Z,28.67
2018-01-24T14:00:17.729Z,28.07
2018-01-24T14:02:47.732Z,27.34
2018-01-24T14:05:16.784Z,24.27
2018-01-24T14:07:49.312Z,22.02
2018-01-24T14:10:22.332Z,19.20
2018-01-24T14:12:51.437Z,18.96
2018-01-24T14:15:23.059Z,18.36
2018-01-24T14:20:32.416Z,16.43
2018-01-24T14:23:07.606Z,16.76
2018-01-24T14:25:36.632Z,16.93
2018-01-24T14:30:45.465Z,17.65
2018-01-24T14:33:14.590Z,17.79
2018-01-24T14:35:45.504Z,17.72
2018-01-24T14:38:17.206Z,18.26
2018-01-24T14:43:21.461Z,18.05
2018-01-24T14:45:54.297Z,17.48
2018-01-24T14:48:23.314Z,16.93
2018-01-24T14:50:56.881Z,16.82
2018-01-24T14:53:29.682Z,16.27
2018-01-24T14:56:02.550Z,16.34
2018-01-24T14:58:35.926Z,15.60
2018-01-24T15:01:08.892Z,15.06
2018-01-24T15:06:14.263Z,14.83
2018-01-24T15:08:43.301Z,14.83
2018-01-24T15:11:14.799Z,14.71
2018-01-24T15:13:47.911Z,14.27
2018-01-24T15:16:16.966Z,13.82
2018-01-24T15:18:45.989Z,13.42
2018-01-24T15:21:15.041Z,13.11
2018-01-24T15:23:44.081Z,12.74
2018-01-24T15:26:16.660Z,12.55
2018-01-24T15:28:50.089Z,12.29
2018-01-24T15:31:23.253Z,11.97
2018-01-24T15:33:56.074Z,11.67
2018-01-24T15:36:28.876Z,11.34
2018-01-24T15:38:57.925Z,11.08
2018-01-24T15:41:30.848Z,10.77
2018-01-24T15:44:03.662Z,10.52
2018-01-24T15:49:14.879Z,10.14
2018-01-24T15:51:47.461Z,9.69
2018-01-24T15:54:16.570Z,9.32
2018-01-24T15:56:49.182Z,9.08
2018-01-24T16:01:58.514Z,8.83
2018-01-24T16:04:34.214Z,8.57
2018-01-24T16:07:07.308Z,8.31
2018-01-24T16:09:36.322Z,8.03
2018-01-24T16:12:06.717Z,7.79
2018-01-24T16:14:35.712Z,7.56
2018-01-24T16:17:08.355Z,7.42
2018-01-24T16:19:37.363Z,7.17
2018-01-24T16:22:10.706Z,7.02
2018-01-24T16:24:43.252Z,6.87
2018-01-24T16:27:13.296Z,6.74
2018-01-24T16:29:46.035Z,6.61
2018-01-24T16:32:18.021Z,6.81
2018-01-24T16:34:50.448Z,6.62
2018-01-24T16:37:23.713Z,6.62
2018-01-24T16:39:56.739Z,6.48
2018-01-24T16:42:30.130Z,6.53
2018-01-24T16:47:38.591Z,6.27
2018-01-24T16:50:11.254Z,6.10
2018-01-24T16:52:40.253Z,5.94
2018-01-24T16:55:09.287Z,5.80
2018-01-24T16:57:41.456Z,5.67
2018-01-24T17:00:14.466Z,5.83
2018-01-24T17:02:43.536Z,5.74
2018-01-24T17:07:51.407Z,5.85
2018-01-24T17:12:55.782Z,5.76
2018-01-24T17:15:28.775Z,5.65
2018-01-24T17:18:01.895Z,5.60
2018-01-24T17:20:30.944Z,5.45
2018-01-24T17:23:00.050Z,5.45
2018-01-24T17:25:31.865Z,5.54
2018-01-24T17:30:36.646Z,5.58
2018-01-24T17:33:10.814Z,5.55
2018-01-24T17:35:39.857Z,5.49
2018-01-24T17:38:12.630Z,5.57
2018-01-24T17:40:41.665Z,5.45
2018-01-24T17:43:13.705Z,5.46
2018-01-24T17:48:19.843Z,5.52
2018-01-24T17:50:52.961Z,5.64
2018-01-24T17:55:58.204Z,5.08
2018-01-24T18:01:05.015Z,4.82
2018-01-24T18:03:34.049Z,4.61
2018-01-24T18:06:05.615Z,4.45
2018-01-24T18:08:35.814Z,4.41
2018-01-24T18:11:05.283Z,4.56
2018-01-24T18:13:38.166Z,4.69
2018-01-24T18:16:10.831Z,4.80
2018-01-24T18:18:39.901Z,4.92
2018-01-24T18:21:14.059Z,5.07
2018-01-24T18:23:43.199Z,5.01
2018-01-24T18:28:52.679Z,5.22
2018-01-24T18:31:21.800Z,5.28
2018-01-24T18:33:52.146Z,5.35
2018-01-24T18:39:56.088Z,5.33
2018-01-24T18:42:29.485Z,5.49
2018-01-24T18:45:01.226Z,5.71
2018-01-24T18:47:30.240Z,5.82
2018-01-24T18:49:59.273Z,5.81
2018-01-24T18:52:31.443Z,5.86
2018-01-24T18:55:03.558Z,5.75
2018-01-24T18:57:36.114Z,5.70
2018-01-24T19:00:05.831Z,5.67
2018-01-24T19:02:39.645Z,5.66
2018-01-24T19:05:12.591Z,5.54
2018-01-24T19:07:45.088Z,5.40
2018-01-24T19:10:14.081Z,5.11
2018-01-24T19:15:23.789Z,4.98
2018-01-24T19:17:56.269Z,4.70
2018-01-24T19:20:25.294Z,4.62
2018-01-24T19:22:54.358Z,4.73
2018-01-24T19:25:27.189Z,4.97
2018-01-24T19:27:58.967Z,5.09
2018-01-24T19:30:32.122Z,5.17
2018-01-24T19:33:05.239Z,5.20
2018-01-24T19:35:38.317Z,5.20
2018-01-24T19:38:11.262Z,5.21
2018-01-24T19:40:43.971Z,5.32
2018-01-24T19:43:17.478Z,5.31
2018-01-24T19:45:50.783Z,5.32
2018-01-24T19:48:19.837Z,5.26
2018-01-24T19:53:25.325Z,4.97
2018-01-24T19:55:57.764Z,4.79
2018-01-24T19:58:29.183Z,4.46
2018-01-24T20:01:00.355Z,4.52
2018-01-24T20:03:29.356Z,4.51
2018-01-24T20:06:02.414Z,4.52
2018-01-24T20:08:31.412Z,4.64
2018-01-24T20:11:04.225Z,4.65
2018-01-24T20:13:37.360Z,4.67
2018-01-24T20:16:10.106Z,4.62
2018-01-24T20:18:46.483Z,4.73
2018-01-24T20:21:19.035Z,4.71
2018-01-24T20:23:52.606Z,4.59
2018-01-24T20:26:25.515Z,4.52
2018-01-24T20:28:54.537Z,4.60
2018-01-24T20:31:27.389Z,4.49
2018-01-24T20:33:56.482Z,4.37
2018-01-24T20:36:29.030Z,4.46
2018-01-24T20:41:37.724Z,4.39
2018-01-24T20:44:06.879Z,4.17
2018-01-24T20:46:39.609Z,4.10
2018-01-24T20:49:08.618Z,3.90
2018-01-24T20:51:42.768Z,3.78
2018-01-24T20:54:16.693Z,3.60
2018-01-24T20:56:50.190Z,3.50
2018-01-24T20:59:22.480Z,3.32
2018-01-24T21:01:55.629Z,3.21
2018-01-24T21:04:24.642Z,3.24
2018-01-24T21:06:53.672Z,3.13
2018-01-24T21:09:23.257Z,3.10
2018-01-24T21:11:54.444Z,3.41
2018-01-24T21:14:28.567Z,3.71
2018-01-24T21:17:00.548Z,3.98
2018-01-24T21:19:29.586Z,4.23
2018-01-24T21:22:04.252Z,4.29
2018-01-24T21:24:33.894Z,4.44
2018-01-24T21:27:07.546Z,4.61
2018-01-24T21:32:30.796Z,4.48
2018-01-24T21:38:13.614Z,4.22
2018-01-24T21:40:46.250Z,3.87
2018-01-24T21:43:17.697Z,3.49
2018-01-24T21:45:46.738Z,3.29
2018-01-24T21:48:19.664Z,3.09
2018-01-24T21:50:52.759Z,3.07
2018-01-24T21:53:25.247Z,2.84
2018-01-24T21:56:00.878Z,2.66
2018-01-24T21:58:34.626Z,2.64
2018-01-24T22:01:07.963Z,2.72
2018-01-24T22:03:36.955Z,3.01
2018-01-24T22:06:06.013Z,2.97
2018-01-24T22:08:39.305Z,2.86
2018-01-24T22:11:12.461Z,3.02
2018-01-24T22:13:41.505Z,3.00
2018-01-24T22:16:14.404Z,2.87
2018-01-24T22:18:43.420Z,2.77
2018-01-24T22:21:13.288Z,2.59
2018-01-24T22:23:42.462Z,2.57
2018-01-24T22:26:15.306Z,2.46
2018-01-24T22:28:44.326Z,2.43
2018-01-24T22:31:13.367Z,2.55
2018-01-24T22:33:42.404Z,2.50
2018-01-24T22:38:46.818Z,2.48
2018-01-24T22:43:51.688Z,2.46
2018-01-24T22:46:20.944Z,2.64
2018-01-24T22:48:49.998Z,2.76
2018-01-24T22:53:56.253Z,2.89
2018-01-24T22:56:25.289Z,2.84
2018-01-24T22:58:54.330Z,2.86
2018-01-24T23:01:23.393Z,3.02
2018-01-24T23:03:52.426Z,3.14
2018-01-24T23:06:22.202Z,3.10
2018-01-24T23:08:52.661Z,3.07
2018-01-24T23:11:21.733Z,2.99
2018-01-24T23:13:50.775Z,3.06
2018-01-24T23:16:19.846Z,3.17
2018-01-24T23:18:48.893Z,3.27
2018-01-24T23:21:18.360Z,3.27
2018-01-24T23:23:47.493Z,3.33
2018-01-24T23:26:16.722Z,3.36
2018-01-24T23:28:45.790Z,3.28
2018-01-24T23:31:14.981Z,3.34
2018-01-24T23:33:44.044Z,3.41
2018-01-24T23:36:16.817Z,3.31
2018-01-24T23:38:45.832Z,3.30
2018-01-24T23:41:14.873Z,3.37
2018-01-24T23:43:44.841Z,3.41
2018-01-24T23:46:13.865Z,3.34
2018-01-24T23:48:42.926Z,3.22
2018-01-24T23:51:11.957Z,3.16
2018-01-24T23:53:40.990Z,3.25
2018-01-24T23:56:10.962Z,3.29
2018-01-24T23:58:40.001Z,3.31
